Time;durP1;ratioP1;P1;durP2;ratioP2;P2;SDS_P1;SDS_P2;PMS_P1;PMS_P2;Temp;Humidity;BMP_temperature;BMP_pressure;BME280_temperature;BME280_humidity;BME280_pressure;Samples;Min_cycle;Max_cycle;Signal;HPM_P1;HPM_P2
2024/04/07 19:26:21;;;;;;;15.67;4.03;;;16.60;57.50;;;;;;5493578;25;21228;-61
2024/04/07 19:28:47;;;;;;;11.90;4.30;;;16.30;58.50;;;;;;5435544;26;20531;-61
2024/04/07 19:31:14;;;;;;;14.90;4.73;;;16.30;58.80;;;;;;5448337;26;20220;-62
2024/04/07 19:33:40;;;;;;;15.83;3.80;;;16.20;58.90;;;;;;5430337;26;20454;-61
2024/04/07 19:36:06;;;;;;;16.20;3.17;;;16.20;58.90;;;;;;5444395;26;20465;-62
2024/04/07 19:38:34;;;;;;;12.60;3.53;;;16.20;58.90;;;;;;5438013;26;20271;-62
2024/04/07 19:41:00;;;;;;;8.37;3.77;;;16.10;58.90;;;;;;5432962;26;20457;-62
2024/04/07 19:43:26;;;;;;;12.27;3.57;;;16.10;58.80;;;;;;5431115;26;20458;-62
2024/04/07 19:45:52;;;;;;;11.47;3.90;;;16.10;58.80;;;;;;5443748;26;20746;-60
2024/04/07 19:48:19;;;;;;;10.87;4.00;;;16.00;58.90;;;;;;5438355;26;21003;-62
2024/04/07 19:50:52;;;;;;;10.13;4.00;;;16.00;59.20;;;;;;5435985;26;20450;-62
2024/04/07 19:53:20;;;;;;;11.00;3.93;;;16.00;59.70;;;;;;5435947;26;20589;-63
2024/04/07 19:55:46;;;;;;;13.10;4.20;;;15.90;60.00;;;;;;5435010;26;20462;-63
2024/04/07 19:58:12;;;;;;;15.90;5.47;;;15.90;60.00;;;;;;5429139;26;20588;-62
2024/04/07 20:00:39;;;;;;;16.53;4.70;;;15.80;59.70;;;;;;5429459;26;20461;-62
2024/04/07 20:03:05;;;;;;;16.80;4.37;;;15.80;59.80;;;;;;5436501;26;20232;-61
2024/04/07 20:05:31;;;;;;;12.53;3.97;;;15.80;59.80;;;;;;5438333;26;20521;-62
2024/04/07 20:07:56;;;;;;;14.70;4.10;;;15.70;59.80;;;;;;5432470;26;20269;-61
2024/04/07 20:10:22;;;;;;;12.50;3.90;;;15.70;60.10;;;;;;5435675;26;20465;-61
2024/04/07 20:12:47;;;;;;;7.20;4.80;;;15.70;60.50;;;;;;5433742;26;20896;-62
2024/04/07 20:15:13;;;;;;;15.80;3.90;;;15.60;60.40;;;;;;5436561;26;20228;-62
2024/04/07 20:17:38;;;;;;;17.47;4.70;;;15.60;60.20;;;;;;5425696;26;20227;-60
2024/04/07 20:20:04;;;;;;;13.20;4.37;;;15.60;60.30;;;;;;5441091;26;20257;-61
2024/04/07 20:22:30;;;;;;;11.10;4.40;;;15.60;60.30;;;;;;5434281;26;20235;-61
2024/04/07 20:24:56;;;;;;;9.00;3.57;;;15.50;60.50;;;;;;5433506;26;20228;-62
2024/04/07 20:27:21;;;;;;;12.17;4.00;;;15.50;60.60;;;;;;5438228;26;20227;-64
2024/04/07 20:29:47;;;;;;;13.00;4.50;;;15.40;60.60;;;;;;5434251;26;20279;-61
2024/04/07 20:32:13;;;;;;;14.27;4.60;;;15.40;60.50;;;;;;5430805;26;20239;-62
2024/04/07 20:34:38;;;;;;;10.00;3.67;;;15.40;60.40;;;;;;5420905;26;20267;-63
2024/04/07 20:37:04;;;;;;;17.83;5.43;;;15.40;60.60;;;;;;5433651;26;20279;-63
2024/04/07 20:39:29;;;;;;;12.80;4.63;;;15.40;60.60;;;;;;5421693;26;20259;-61
2024/04/07 20:41:55;;;;;;;7.40;3.87;;;15.30;60.50;;;;;;5420319;26;20263;-63
2024/04/07 20:44:21;;;;;;;14.50;4.40;;;15.30;60.70;;;;;;5423780;26;25548;-63
2024/04/07 20:46:50;;;;;;;10.47;4.27;;;15.30;60.70;;;;;;5421468;26;20727;-63
2024/04/07 20:49:16;;;;;;;12.40;5.03;;;15.20;60.80;;;;;;5418050;26;20446;-63
2024/04/07 20:51:42;;;;;;;14.10;5.40;;;15.20;61.10;;;;;;5432299;26;20858;-63
2024/04/07 20:54:09;;;;;;;13.73;5.70;;;15.20;61.20;;;;;;5424128;26;20454;-62
2024/04/07 20:56:35;;;;;;;18.03;5.47;;;15.10;61.20;;;;;;5430005;26;20278;-62
2024/04/07 20:59:00;;;;;;;13.90;5.10;;;15.10;61.00;;;;;;5421663;26;20465;-62
2024/04/07 21:01:26;;;;;;;10.93;5.00;;;15.10;61.00;;;;;;5421906;26;20225;-62
2024/04/07 21:03:52;;;;;;;15.03;5.73;;;15.10;61.10;;;;;;5428399;26;20216;-63
2024/04/07 21:06:18;;;;;;;16.83;4.80;;;15.10;61.30;;;;;;5416907;26;20514;-61
2024/04/07 21:08:43;;;;;;;13.10;4.10;;;15.00;61.70;;;;;;5430841;26;20469;-62
2024/04/07 21:11:09;;;;;;;18.60;4.67;;;15.00;61.70;;;;;;5419589;26;20317;-61
2024/04/07 21:13:35;;;;;;;15.53;4.03;;;14.90;61.80;;;;;;5420904;26;20296;-62
2024/04/07 21:16:00;;;;;;;13.13;4.20;;;15.00;61.90;;;;;;5436090;26;20224;-62
2024/04/07 21:18:26;;;;;;;17.53;4.50;;;14.90;61.80;;;;;;5428450;26;20329;-63
2024/04/07 21:20:52;;;;;;;13.60;4.00;;;14.90;61.80;;;;;;5422634;26;20279;-63
2024/04/07 21:23:17;;;;;;;13.57;4.10;;;14.90;62.00;;;;;;5424753;26;20742;-63
2024/04/07 21:25:47;;;;;;;10.37;4.50;;;14.80;62.00;;;;;;5430131;26;20228;-64
2024/04/07 21:28:12;;;;;;;9.30;3.80;;;14.80;62.00;;;;;;5435003;26;20227;-63
2024/04/07 21:30:38;;;;;;;11.00;4.97;;;14.80;62.20;;;;;;5430809;26;20853;-63
2024/04/07 21:33:04;;;;;;;10.77;4.10;;;14.80;62.30;;;;;;5433850;26;20349;-63
2024/04/07 21:35:29;;;;;;;12.47;4.47;;;14.70;62.10;;;;;;5434206;26;20243;-63
2024/04/07 21:37:56;;;;;;;14.87;5.20;;;14.70;62.40;;;;;;5430548;26;20341;-61
2024/04/07 21:40:22;;;;;;;11.73;5.37;;;14.70;62.80;;;;;;5421908;26;20263;-63
2024/04/07 21:42:50;;;;;;;8.97;5.33;;;14.60;62.80;;;;;;5416332;26;20459;-63
2024/04/07 21:45:15;;;;;;;11.43;4.90;;;14.60;62.80;;;;;;5430920;26;20228;-63
2024/04/07 21:47:41;;;;;;;7.70;4.10;;;14.60;63.00;;;;;;5435177;26;20969;-62
2024/04/07 21:50:07;;;;;;;9.53;5.07;;;14.60;63.10;;;;;;5437133;26;20286;-63
2024/04/07 21:52:32;;;;;;;16.13;4.67;;;14.50;63.10;;;;;;5431561;26;20224;-63
2024/04/07 21:54:58;;;;;;;9.53;4.80;;;14.50;63.40;;;;;;5444342;26;20308;-64
2024/04/07 21:57:23;;;;;;;11.73;3.90;;;14.40;63.70;;;;;;5426130;26;20236;-62
2024/04/07 21:59:50;;;;;;;11.67;4.00;;;14.40;63.50;;;;;;5437362;26;20270;-62
2024/04/07 22:02:16;;;;;;;10.63;4.10;;;14.40;63.40;;;;;;5424713;26;20793;-63
2024/04/07 22:04:42;;;;;;;16.10;4.47;;;14.40;63.50;;;;;;5437343;26;20494;-63
2024/04/07 22:07:07;;;;;;;11.30;4.60;;;14.40;63.70;;;;;;5432157;26;20835;-63
2024/04/07 22:09:33;;;;;;;6.93;3.77;;;14.30;63.80;;;;;;5429753;26;20220;-62
2024/04/07 22:11:59;;;;;;;17.73;4.17;;;14.30;63.80;;;;;;5435628;26;20288;-63
2024/04/07 22:14:25;;;;;;;18.17;4.50;;;14.30;64.00;;;;;;5429277;26;21253;-63
2024/04/07 22:16:51;;;;;;;10.17;5.23;;;14.20;64.00;;;;;;5437810;26;20223;-62
2024/04/07 22:19:17;;;;;;;8.80;4.17;;;14.20;64.40;;;;;;5432414;26;20526;-63
2024/04/07 22:21:44;;;;;;;9.63;4.67;;;14.20;64.40;;;;;;5440688;26;20619;-64
2024/04/07 22:24:10;;;;;;;9.80;3.80;;;14.10;64.20;;;;;;5427277;26;20360;-62
2024/04/07 22:26:36;;;;;;;16.07;4.47;;;14.10;64.10;;;;;;5428208;26;20532;-64
2024/04/07 22:29:04;;;;;;;10.03;3.83;;;14.10;65.00;;;;;;5421280;26;20289;-63
2024/04/07 22:31:30;;;;;;;9.23;4.33;;;14.10;64.40;;;;;;5427274;26;20466;-64
2024/04/07 22:33:56;;;;;;;18.13;4.27;;;14.00;64.40;;;;;;5429950;26;20846;-64
2024/04/07 22:36:22;;;;;;;12.43;4.57;;;14.00;64.60;;;;;;5436494;26;20301;-62
2024/04/07 22:38:47;;;;;;;10.23;3.53;;;14.10;64.60;;;;;;5430898;26;20270;-63
2024/04/07 22:41:13;;;;;;;8.90;4.37;;;14.00;64.60;;;;;;5422829;26;20330;-63
2024/04/07 22:43:38;;;;;;;11.60;3.80;;;14.00;64.80;;;;;;5432849;26;20578;-63
2024/04/07 22:46:04;;;;;;;10.50;4.40;;;14.00;65.10;;;;;;5435084;26;20220;-63
2024/04/07 22:48:30;;;;;;;7.47;3.87;;;13.90;65.30;;;;;;5414573;26;20808;-62
2024/04/07 22:50:55;;;;;;;36.67;5.13;;;13.90;65.50;;;;;;5428093;26;20224;-63
2024/04/07 22:53:21;;;;;;;13.23;5.00;;;13.90;65.60;;;;;;5426076;26;20228;-62
2024/04/07 22:55:46;;;;;;;8.93;4.27;;;13.90;65.60;;;;;;5426114;26;20228;-62
2024/04/07 22:58:12;;;;;;;11.53;4.10;;;13.80;65.60;;;;;;5433451;26;20244;-63
2024/04/07 23:00:42;;;;;;;13.67;5.63;;;13.80;65.80;;;;;;5433718;26;20228;-62
2024/04/07 23:03:07;;;;;;;15.13;5.40;;;13.80;65.90;;;;;;5429913;26;20232;-63
2024/04/07 23:05:37;;;;;;;21.80;5.63;;;13.80;65.90;;;;;;5428631;26;20519;-62
2024/04/07 23:08:04;;;;;;;16.93;5.70;;;13.80;66.10;;;;;;5427891;26;20323;-62
2024/04/07 23:10:30;;;;;;;11.53;5.80;;;13.70;66.30;;;;;;5434742;26;20465;-62
2024/04/07 23:12:55;;;;;;;15.17;4.80;;;13.70;66.30;;;;;;5427693;26;20511;-62
2024/04/07 23:15:22;;;;;;;10.57;5.00;;;13.70;66.50;;;;;;5425561;26;20461;-61
2024/04/07 23:17:48;;;;;;;20.60;5.10;;;13.60;66.70;;;;;;5434863;26;20328;-62
2024/04/07 23:20:14;;;;;;;13.13;5.50;;;13.60;66.90;;;;;;5432303;26;20453;-64
2024/04/07 23:22:39;;;;;;;21.27;5.80;;;13.50;66.80;;;;;;5437954;26;20719;-64
2024/04/07 23:25:06;;;;;;;22.63;5.90;;;13.50;66.90;;;;;;5423184;26;20559;-63
2024/04/07 23:27:32;;;;;;;14.83;5.10;;;13.50;67.10;;;;;;5436756;26;20228;-64
2024/04/07 23:30:03;;;;;;;13.60;6.10;;;13.50;67.30;;;;;;5424108;26;21079;-64
2024/04/07 23:32:29;;;;;;;19.97;5.30;;;13.40;67.50;;;;;;5411013;26;21049;-63
2024/04/07 23:34:56;;;;;;;11.90;4.97;;;13.40;67.80;;;;;;5422052;26;20522;-63
2024/04/07 23:37:21;;;;;;;14.43;6.07;;;13.40;67.60;;;;;;5427265;26;20847;-64
2024/04/07 23:39:48;;;;;;;12.43;5.20;;;13.40;67.80;;;;;;5429609;26;20462;-63
2024/04/07 23:42:14;;;;;;;8.90;4.60;;;13.30;67.90;;;;;;5429331;26;20286;-63
2024/04/07 23:44:40;;;;;;;15.40;5.40;;;13.30;68.10;;;;;;5433982;26;20454;-63
2024/04/07 23:47:07;;;;;;;17.17;5.63;;;13.30;68.30;;;;;;5439838;26;20321;-63
2024/04/07 23:49:33;;;;;;;22.80;4.93;;;13.30;68.60;;;;;;5427226;26;20331;-63
2024/04/07 23:51:58;;;;;;;13.67;5.30;;;13.30;68.80;;;;;;5432834;26;21030;-63
2024/04/07 23:54:24;;;;;;;19.23;5.00;;;13.30;68.80;;;;;;5429593;26;20228;-64
2024/04/07 23:56:50;;;;;;;22.30;5.10;;;13.30;68.80;;;;;;5417171;26;20726;-63
2024/04/07 23:59:17;;;;;;;9.23;4.67;;;13.30;68.70;;;;;;5427973;26;20215;-63
